sensor_id;sensor_type;location;lat;lon;timestamp;pressure;altitude;pressure_sealevel;temperature;humidity
74680;BME280;63211;48.548;2.704;2022-12-15T00:02:16;99695.75;;;18.18;40.97
74680;BME280;63211;48.548;2.704;2022-12-15T00:05:00;99704.50;;;18.20;40.76
74680;BME280;63211;48.548;2.704;2022-12-15T00:07:46;99694.69;;;18.19;41.07
74680;BME280;63211;48.548;2.704;2022-12-15T00:10:30;99699.31;;;18.19;40.85
74680;BME280;63211;48.548;2.704;2022-12-15T00:13:14;99698.00;;;18.22;40.96
74680;BME280;63211;48.548;2.704;2022-12-15T00:15:58;99705.34;;;18.21;40.73
74680;BME280;63211;48.548;2.704;2022-12-15T00:18:42;99700.72;;;18.22;40.95
74680;BME280;63211;48.548;2.704;2022-12-15T00:21:26;99701.28;;;18.24;40.95
74680;BME280;63211;48.548;2.704;2022-12-15T00:24:12;99697.75;;;18.23;41.17
74680;BME280;63211;48.548;2.704;2022-12-15T00:26:56;99704.84;;;18.24;40.91
74680;BME280;63211;48.548;2.704;2022-12-15T00:29:41;99692.06;;;18.25;40.94
74680;BME280;63211;48.548;2.704;2022-12-15T00:32:24;99686.50;;;18.19;40.89
74680;BME280;63211;48.548;2.704;2022-12-15T00:35:09;99689.16;;;18.14;41.31
74680;BME280;63211;48.548;2.704;2022-12-15T00:37:53;99688.81;;;18.11;41.20
74680;BME280;63211;48.548;2.704;2022-12-15T00:40:38;99687.41;;;18.08;41.40
74680;BME280;63211;48.548;2.704;2022-12-15T00:43:05;99695.84;;;18.07;41.60
74680;BME280;63211;48.548;2.704;2022-12-15T00:45:36;99690.06;;;18.03;41.55
74680;BME280;63211;48.548;2.704;2022-12-15T00:48:20;99692.81;;;18.03;40.79
74680;BME280;63211;48.548;2.704;2022-12-15T00:50:46;99695.03;;;18.06;40.91
74680;BME280;63211;48.548;2.704;2022-12-15T00:53:18;99702.19;;;18.12;40.59
74680;BME280;63211;48.548;2.704;2022-12-15T00:56:04;99709.03;;;18.15;40.62
74680;BME280;63211;48.548;2.704;2022-12-15T00:58:48;99715.66;;;18.19;40.90
74680;BME280;63211;48.548;2.704;2022-12-15T01:01:32;99720.84;;;18.20;41.14
74680;BME280;63211;48.548;2.704;2022-12-15T01:04:16;99719.78;;;18.22;41.08
74680;BME280;63211;48.548;2.704;2022-12-15T01:07:00;99729.84;;;18.21;41.33
74680;BME280;63211;48.548;2.704;2022-12-15T01:09:44;99717.88;;;18.22;41.57
74680;BME280;63211;48.548;2.704;2022-12-15T01:12:29;99714.09;;;18.23;41.62
74680;BME280;63211;48.548;2.704;2022-12-15T01:15:14;99713.03;;;18.24;41.78
74680;BME280;63211;48.548;2.704;2022-12-15T01:17:58;99708.41;;;18.25;41.74
74680;BME280;63211;48.548;2.704;2022-12-15T01:20:42;99713.59;;;18.26;41.63
74680;BME280;63211;48.548;2.704;2022-12-15T01:23:08;99710.63;;;18.28;41.76
74680;BME280;63211;48.548;2.704;2022-12-15T01:25:37;99712.28;;;18.29;42.13
74680;BME280;63211;48.548;2.704;2022-12-15T01:28:05;99712.81;;;18.31;42.17
74680;BME280;63211;48.548;2.704;2022-12-15T01:30:32;99657.63;;;18.02;42.00
74680;BME280;63211;48.548;2.704;2022-12-15T01:32:59;99715.00;;;18.29;42.17
74680;BME280;63211;48.548;2.704;2022-12-15T01:35:25;99710.53;;;18.23;41.72
74680;BME280;63211;48.548;2.704;2022-12-15T01:37:53;99701.22;;;18.18;41.50
74680;BME280;63211;48.548;2.704;2022-12-15T01:40:20;99696.25;;;18.15;41.33
74680;BME280;63211;48.548;2.704;2022-12-15T01:43:11;99693.44;;;18.10;41.66
74680;BME280;63211;48.548;2.704;2022-12-15T01:45:56;99698.31;;;18.08;41.02
74680;BME280;63211;48.548;2.704;2022-12-15T01:48:27;99699.91;;;18.04;40.95
74680;BME280;63211;48.548;2.704;2022-12-15T01:51:12;99698.31;;;18.08;40.93
74680;BME280;63211;48.548;2.704;2022-12-15T01:53:42;99700.28;;;18.13;41.33
74680;BME280;63211;48.548;2.704;2022-12-15T01:56:11;99697.66;;;18.18;41.52
74680;BME280;63211;48.548;2.704;2022-12-15T01:58:41;99700.13;;;18.19;41.34
74680;BME280;63211;48.548;2.704;2022-12-15T02:01:09;99662.50;;;18.00;41.23
74680;BME280;63211;48.548;2.704;2022-12-15T02:03:36;99696.09;;;18.22;41.39
74680;BME280;63211;48.548;2.704;2022-12-15T02:06:04;99702.94;;;18.25;41.30
74680;BME280;63211;48.548;2.704;2022-12-15T02:08:31;99714.69;;;18.25;41.24
74680;BME280;63211;48.548;2.704;2022-12-15T02:11:17;99700.38;;;18.18;41.24
74680;BME280;63211;48.548;2.704;2022-12-15T02:13:49;99720.94;;;18.26;41.01
74680;BME280;63211;48.548;2.704;2022-12-15T02:16:26;99708.97;;;18.27;41.36
74680;BME280;63211;48.548;2.704;2022-12-15T02:18:59;99706.84;;;18.29;41.26
74680;BME280;63211;48.548;2.704;2022-12-15T02:21:35;99707.63;;;18.29;41.44
74680;BME280;63211;48.548;2.704;2022-12-15T02:24:36;99721.00;;;18.31;41.26
74680;BME280;63211;48.548;2.704;2022-12-15T02:27:17;99725.38;;;18.32;41.39
74680;BME280;63211;48.548;2.704;2022-12-15T02:33:08;99706.06;;;18.33;41.15
74680;BME280;63211;48.548;2.704;2022-12-15T02:38:29;99687.22;;;18.32;41.17
74680;BME280;63211;48.548;2.704;2022-12-15T02:40:58;99672.66;;;18.21;41.02
74680;BME280;63211;48.548;2.704;2022-12-15T02:43:25;99685.78;;;18.24;40.72
74680;BME280;63211;48.548;2.704;2022-12-15T02:45:59;99693.88;;;18.19;40.55
74680;BME280;63211;48.548;2.704;2022-12-15T02:48:38;99702.28;;;18.17;40.01
74680;BME280;63211;48.548;2.704;2022-12-15T02:51:21;99706.56;;;18.13;39.94
74680;BME280;63211;48.548;2.704;2022-12-15T02:54:20;99696.41;;;18.09;39.68
74680;BME280;63211;48.548;2.704;2022-12-15T02:56:54;99706.22;;;18.10;40.18
74680;BME280;63211;48.548;2.704;2022-12-15T02:59:35;99713.91;;;18.13;40.50
74680;BME280;63211;48.548;2.704;2022-12-15T03:02:04;99708.81;;;18.16;40.95
74680;BME280;63211;48.548;2.704;2022-12-15T03:04:33;99712.69;;;18.20;40.97
74680;BME280;63211;48.548;2.704;2022-12-15T03:07:02;99696.91;;;18.23;40.76
74680;BME280;63211;48.548;2.704;2022-12-15T03:09:29;99697.25;;;18.26;41.19
74680;BME280;63211;48.548;2.704;2022-12-15T03:11:57;99701.88;;;18.26;41.14
74680;BME280;63211;48.548;2.704;2022-12-15T03:14:24;99709.81;;;18.27;41.06
74680;BME280;63211;48.548;2.704;2022-12-15T03:16:51;99712.28;;;18.29;41.02
74680;BME280;63211;48.548;2.704;2022-12-15T03:19:18;99707.63;;;18.29;41.21
74680;BME280;63211;48.548;2.704;2022-12-15T03:21:46;99709.28;;;18.30;40.72
74680;BME280;63211;48.548;2.704;2022-12-15T03:24:13;99713.66;;;18.31;40.64
74680;BME280;63211;48.548;2.704;2022-12-15T03:26:39;99711.75;;;18.32;40.97
74680;BME280;63211;48.548;2.704;2022-12-15T03:29:08;99702.50;;;18.33;40.97
74680;BME280;63211;48.548;2.704;2022-12-15T03:31:34;99688.63;;;18.34;40.81
74680;BME280;63211;48.548;2.704;2022-12-15T03:34:01;99692.69;;;18.32;40.72
74680;BME280;63211;48.548;2.704;2022-12-15T03:36:28;99703.09;;;18.35;41.23
74680;BME280;63211;48.548;2.704;2022-12-15T03:38:56;99699.28;;;18.36;40.94
74680;BME280;63211;48.548;2.704;2022-12-15T03:41:22;99695.50;;;18.37;40.71
74680;BME280;63211;48.548;2.704;2022-12-15T03:43:49;99701.78;;;18.37;40.74
74680;BME280;63211;48.548;2.704;2022-12-15T03:46:15;99709.13;;;18.37;40.85
74680;BME280;63211;48.548;2.704;2022-12-15T03:48:42;99701.69;;;18.32;40.93
74680;BME280;63211;48.548;2.704;2022-12-15T03:51:09;99689.06;;;18.26;40.20
74680;BME280;63211;48.548;2.704;2022-12-15T03:53:35;99690.41;;;18.24;40.19
74680;BME280;63211;48.548;2.704;2022-12-15T03:56:04;99688.16;;;18.20;39.94
74680;BME280;63211;48.548;2.704;2022-12-15T03:58:31;99694.09;;;18.17;39.62
74680;BME280;63211;48.548;2.704;2022-12-15T04:00:57;99693.78;;;18.14;39.52
74680;BME280;63211;48.548;2.704;2022-12-15T04:03:24;99676.03;;;18.11;39.68
74680;BME280;63211;48.548;2.704;2022-12-15T04:05:51;99683.13;;;18.12;39.60
74680;BME280;63211;48.548;2.704;2022-12-15T04:08:17;99684.28;;;18.16;40.02
74680;BME280;63211;48.548;2.704;2022-12-15T04:10:51;99681.91;;;18.20;40.30
74680;BME280;63211;48.548;2.704;2022-12-15T04:13:19;99689.56;;;18.23;40.18
74680;BME280;63211;48.548;2.704;2022-12-15T04:15:45;99692.06;;;18.25;40.29
74680;BME280;63211;48.548;2.704;2022-12-15T04:18:12;99680.91;;;18.26;40.27
74680;BME280;63211;48.548;2.704;2022-12-15T04:20:39;99674.38;;;18.27;40.09
74680;BME280;63211;48.548;2.704;2022-12-15T04:23:06;99676.84;;;18.29;40.19
74680;BME280;63211;48.548;2.704;2022-12-15T04:25:33;99677.66;;;18.29;40.42
74680;BME280;63211;48.548;2.704;2022-12-15T04:28:19;99671.97;;;18.31;40.68
74680;BME280;63211;48.548;2.704;2022-12-15T04:31:07;99658.34;;;18.31;40.44
74680;BME280;63211;48.548;2.704;2022-12-15T04:33:54;99654.53;;;18.32;40.47
74680;BME280;63211;48.548;2.704;2022-12-15T04:36:42;99648.78;;;18.28;40.24
74680;BME280;63211;48.548;2.704;2022-12-15T04:39:27;99658.09;;;18.32;40.55
74680;BME280;63211;48.548;2.704;2022-12-15T04:42:12;99673.13;;;18.35;40.48
74680;BME280;63211;48.548;2.704;2022-12-15T04:45:00;99677.75;;;18.34;40.36
74680;BME280;63211;48.548;2.704;2022-12-15T04:47:45;99686.50;;;18.36;40.40
74680;BME280;63211;48.548;2.704;2022-12-15T04:50:29;99691.94;;;18.36;40.36
74680;BME280;63211;48.548;2.704;2022-12-15T04:53:16;99691.38;;;18.34;40.49
74680;BME280;63211;48.548;2.704;2022-12-15T04:56:01;99679.75;;;18.22;40.02
74680;BME280;63211;48.548;2.704;2022-12-15T04:58:46;99701.28;;;18.24;39.70
74680;BME280;63211;48.548;2.704;2022-12-15T05:01:31;99701.78;;;18.20;39.62
74680;BME280;63211;48.548;2.704;2022-12-15T05:04:16;99704.19;;;18.17;39.40
74680;BME280;63211;48.548;2.704;2022-12-15T05:07:00;99707.63;;;18.12;39.25
74680;BME280;63211;48.548;2.704;2022-12-15T05:09:44;99697.00;;;18.11;39.54
74680;BME280;63211;48.548;2.704;2022-12-15T05:12:28;99700.28;;;18.13;39.62
74680;BME280;63211;48.548;2.704;2022-12-15T05:15:13;99706.66;;;18.18;39.93
74680;BME280;63211;48.548;2.704;2022-12-15T05:17:58;99711.63;;;18.22;39.79
74680;BME280;63211;48.548;2.704;2022-12-15T05:20:42;99720.38;;;18.24;39.84
74680;BME280;63211;48.548;2.704;2022-12-15T05:23:26;99724.50;;;18.26;40.25
74680;BME280;63211;48.548;2.704;2022-12-15T05:26:10;99731.59;;;18.27;40.00
74680;BME280;63211;48.548;2.704;2022-12-15T05:28:54;99720.28;;;18.18;39.98
74680;BME280;63211;48.548;2.704;2022-12-15T05:31:38;99724.81;;;18.30;40.08
74680;BME280;63211;48.548;2.704;2022-12-15T05:34:18;99721.00;;;18.31;39.80
74680;BME280;63211;48.548;2.704;2022-12-15T05:36:45;99720.75;;;18.32;39.70
74680;BME280;63211;48.548;2.704;2022-12-15T05:39:11;99725.13;;;18.33;39.85
74680;BME280;63211;48.548;2.704;2022-12-15T05:41:38;99709.59;;;18.34;40.12
74680;BME280;63211;48.548;2.704;2022-12-15T05:44:05;99717.53;;;18.35;39.94
74680;BME280;63211;48.548;2.704;2022-12-15T05:46:32;99716.47;;;18.36;40.03
74680;BME280;63211;48.548;2.704;2022-12-15T05:49:01;99704.75;;;18.36;39.81
74680;BME280;63211;48.548;2.704;2022-12-15T05:51:29;99709.13;;;18.37;40.05
74680;BME280;63211;48.548;2.704;2022-12-15T05:53:56;99705.31;;;18.38;39.94
74680;BME280;63211;48.548;2.704;2022-12-15T05:56:24;99698.72;;;18.34;39.82
74680;BME280;63211;48.548;2.704;2022-12-15T05:58:51;99692.69;;;18.32;39.92
74680;BME280;63211;48.548;2.704;2022-12-15T06:01:18;99683.38;;;18.28;39.16
74680;BME280;63211;48.548;2.704;2022-12-15T06:03:45;99680.31;;;18.24;38.77
74680;BME280;63211;48.548;2.704;2022-12-15T06:06:12;99685.09;;;18.17;39.03
74680;BME280;63211;48.548;2.704;2022-12-15T06:08:41;99673.06;;;18.13;39.08
74680;BME280;63211;48.548;2.704;2022-12-15T06:11:10;99676.50;;;18.08;39.02
74680;BME280;63211;48.548;2.704;2022-12-15T06:13:37;99673.78;;;18.08;39.34
74680;BME280;63211;48.548;2.704;2022-12-15T06:16:05;99683.94;;;18.13;39.23
74680;BME280;63211;48.548;2.704;2022-12-15T06:18:34;99676.94;;;18.17;39.17
74680;BME280;63211;48.548;2.704;2022-12-15T06:21:03;99678.69;;;18.23;39.02
74680;BME280;63211;48.548;2.704;2022-12-15T06:23:31;99676.28;;;18.27;39.31
74680;BME280;63211;48.548;2.704;2022-12-15T06:26:06;99683.38;;;18.28;39.07
74680;BME280;63211;48.548;2.704;2022-12-15T06:28:33;99690.72;;;18.27;39.22
74680;BME280;63211;48.548;2.704;2022-12-15T06:31:01;99689.38;;;18.30;39.06
74680;BME280;63211;48.548;2.704;2022-12-15T06:33:28;99693.75;;;18.31;39.17
74680;BME280;63211;48.548;2.704;2022-12-15T06:35:56;99691.84;;;18.31;39.28
74680;BME280;63211;48.548;2.704;2022-12-15T06:38:27;99695.16;;;18.33;39.31
74680;BME280;63211;48.548;2.704;2022-12-15T06:40:54;99691.03;;;18.31;40.02
74680;BME280;63211;48.548;2.704;2022-12-15T06:43:22;99694.00;;;18.29;40.65
74680;BME280;63211;48.548;2.704;2022-12-15T06:45:49;99693.69;;;18.26;40.96
74680;BME280;63211;48.548;2.704;2022-12-15T06:48:16;99687.47;;;18.30;41.29
74680;BME280;63211;48.548;2.704;2022-12-15T06:50:43;99691.19;;;18.41;40.42
74680;BME280;63211;48.548;2.704;2022-12-15T06:53:11;99685.25;;;18.44;40.46
74680;BME280;63211;48.548;2.704;2022-12-15T06:55:37;99700.56;;;18.50;40.76
74680;BME280;63211;48.548;2.704;2022-12-15T06:58:04;99707.13;;;18.49;40.89
74680;BME280;63211;48.548;2.704;2022-12-15T07:00:34;99705.97;;;18.45;40.71
74680;BME280;63211;48.548;2.704;2022-12-15T07:03:01;99714.97;;;18.45;40.38
74680;BME280;63211;48.548;2.704;2022-12-15T07:05:28;99709.56;;;18.29;40.25
74680;BME280;63211;48.548;2.704;2022-12-15T07:07:55;99716.63;;;18.30;39.93
74680;BME280;63211;48.548;2.704;2022-12-15T07:10:21;99714.91;;;18.24;40.17
74680;BME280;63211;48.548;2.704;2022-12-15T07:12:48;99714.34;;;18.22;39.94
74680;BME280;63211;48.548;2.704;2022-12-15T07:15:15;99718.97;;;18.21;40.24
74680;BME280;63211;48.548;2.704;2022-12-15T07:17:43;99725.25;;;18.22;39.90
74680;BME280;63211;48.548;2.704;2022-12-15T07:20:11;99730.94;;;18.20;39.91
74680;BME280;63211;48.548;2.704;2022-12-15T07:22:38;99741.16;;;18.13;40.27
74680;BME280;63211;48.548;2.704;2022-12-15T07:25:05;99741.34;;;18.06;40.46
74680;BME280;63211;48.548;2.704;2022-12-15T07:27:32;99745.63;;;18.02;40.28
74680;BME280;63211;48.548;2.704;2022-12-15T07:29:59;99739.16;;;18.08;41.31
74680;BME280;63211;48.548;2.704;2022-12-15T07:32:26;99744.88;;;18.07;39.53
74680;BME280;63211;48.548;2.704;2022-12-15T07:34:54;99748.50;;;18.12;40.16
74680;BME280;63211;48.548;2.704;2022-12-15T07:37:20;99751.56;;;18.16;41.39
74680;BME280;63211;48.548;2.704;2022-12-15T07:39:47;99759.59;;;18.23;40.76
74680;BME280;63211;48.548;2.704;2022-12-15T07:42:14;99753.66;;;18.26;40.38
74680;BME280;63211;48.548;2.704;2022-12-15T07:44:40;99755.28;;;18.27;40.55
74680;BME280;63211;48.548;2.704;2022-12-15T07:47:07;99759.41;;;18.29;40.19
74680;BME280;63211;48.548;2.704;2022-12-15T07:49:33;99762.31;;;18.23;41.57
74680;BME280;63211;48.548;2.704;2022-12-15T07:52:02;99764.69;;;18.36;39.92
74680;BME280;63211;48.548;2.704;2022-12-15T07:54:29;99753.53;;;18.37;39.69
74680;BME280;63211;48.548;2.704;2022-12-15T07:56:55;99769.81;;;18.49;39.63
74680;BME280;63211;48.548;2.704;2022-12-15T07:59:24;99770.38;;;18.51;39.29
74680;BME280;63211;48.548;2.704;2022-12-15T08:01:51;99764.69;;;18.52;39.19
74680;BME280;63211;48.548;2.704;2022-12-15T08:04:18;99768.72;;;18.50;39.34
74680;BME280;63211;48.548;2.704;2022-12-15T08:06:44;99779.22;;;18.58;39.13
74680;BME280;63211;48.548;2.704;2022-12-15T08:09:12;99787.19;;;18.60;38.89
74680;BME280;63211;48.548;2.704;2022-12-15T08:11:39;99790.72;;;18.60;38.75
74680;BME280;63211;48.548;2.704;2022-12-15T08:14:06;99797.84;;;18.61;38.50
74680;BME280;63211;48.548;2.704;2022-12-15T08:16:32;99801.97;;;18.64;38.29
74680;BME280;63211;48.548;2.704;2022-12-15T08:19:00;99806.03;;;18.61;38.22
74680;BME280;63211;48.548;2.704;2022-12-15T08:21:27;99813.72;;;18.64;37.52
74680;BME280;63211;48.548;2.704;2022-12-15T08:23:55;99816.44;;;18.64;37.89
74680;BME280;63211;48.548;2.704;2022-12-15T08:26:23;99816.41;;;18.47;41.53
74680;BME280;63211;48.548;2.704;2022-12-15T08:28:50;99818.94;;;18.37;42.21
74680;BME280;63211;48.548;2.704;2022-12-15T08:31:18;99822.75;;;18.36;41.89
74680;BME280;63211;48.548;2.704;2022-12-15T08:33:45;99830.91;;;18.36;41.76
74680;BME280;63211;48.548;2.704;2022-12-15T08:36:13;99839.34;;;18.35;41.84
74680;BME280;63211;48.548;2.704;2022-12-15T08:38:42;99843.72;;;18.36;40.90
74680;BME280;63211;48.548;2.704;2022-12-15T08:41:10;99846.19;;;18.37;40.71
74680;BME280;63211;48.548;2.704;2022-12-15T08:43:39;99843.81;;;18.41;39.91
74680;BME280;63211;48.548;2.704;2022-12-15T08:46:06;99848.94;;;18.54;39.64
74680;BME280;63211;48.548;2.704;2022-12-15T08:48:33;99843.00;;;18.57;39.14
74680;BME280;63211;48.548;2.704;2022-12-15T08:51:01;99848.66;;;18.67;38.72
74680;BME280;63211;48.548;2.704;2022-12-15T08:53:27;99847.06;;;18.71;38.49
74680;BME280;63211;48.548;2.704;2022-12-15T08:55:54;99850.47;;;18.78;38.22
74680;BME280;63211;48.548;2.704;2022-12-15T08:58:21;99848.56;;;18.79;38.21
74680;BME280;63211;48.548;2.704;2022-12-15T09:00:49;99847.47;;;18.80;38.13
74680;BME280;63211;48.548;2.704;2022-12-15T09:03:15;99842.84;;;18.80;37.93
74680;BME280;63211;48.548;2.704;2022-12-15T09:05:42;99839.06;;;18.81;38.02
74680;BME280;63211;48.548;2.704;2022-12-15T09:08:09;99839.88;;;18.82;37.70
74680;BME280;63211;48.548;2.704;2022-12-15T09:10:39;99833.09;;;18.84;37.70
74680;BME280;63211;48.548;2.704;2022-12-15T09:13:06;99830.13;;;18.86;37.86
74680;BME280;63211;48.548;2.704;2022-12-15T09:15:32;99823.34;;;18.88;37.61
74680;BME280;63211;48.548;2.704;2022-12-15T09:18:00;99814.50;;;18.81;39.33
74680;BME280;63211;48.548;2.704;2022-12-15T09:20:27;99809.47;;;18.73;39.81
74680;BME280;63211;48.548;2.704;2022-12-15T09:22:54;99807.19;;;18.65;40.61
74680;BME280;63211;48.548;2.704;2022-12-15T09:26:39;99807.50;;;18.69;40.51
74680;BME280;63211;48.548;2.704;2022-12-15T09:29:08;99801.16;;;18.63;40.50
74680;BME280;63211;48.548;2.704;2022-12-15T09:31:36;99803.63;;;18.65;40.35
74680;BME280;63211;48.548;2.704;2022-12-15T09:34:03;99806.59;;;18.63;40.34
74680;BME280;63211;48.548;2.704;2022-12-15T09:36:30;99799.63;;;18.55;40.21
74680;BME280;63211;48.548;2.704;2022-12-15T09:38:58;99807.09;;;18.60;40.36
74680;BME280;63211;48.548;2.704;2022-12-15T09:41:27;99815.03;;;18.62;40.25
74680;BME280;63211;48.548;2.704;2022-12-15T09:43:59;99818.56;;;18.62;40.28
74680;BME280;63211;48.548;2.704;2022-12-15T09:46:47;99816.56;;;18.58;40.00
74680;BME280;63211;48.548;2.704;2022-12-15T09:49:24;99828.06;;;18.60;40.15
74680;BME280;63211;48.548;2.704;2022-12-15T09:52:01;99846.41;;;18.64;40.07
74680;BME280;63211;48.548;2.704;2022-12-15T09:54:31;99847.25;;;18.65;39.93
74680;BME280;63211;48.548;2.704;2022-12-15T09:57:02;99846.41;;;18.64;40.04
74680;BME280;63211;48.548;2.704;2022-12-15T09:59:40;99845.47;;;18.59;39.86
74680;BME280;63211;48.548;2.704;2022-12-15T10:02:35;99842.91;;;18.52;39.79
74680;BME280;63211;48.548;2.704;2022-12-15T10:05:12;99829.38;;;18.40;40.14
74680;BME280;63211;48.548;2.704;2022-12-15T10:07:43;99824.75;;;18.41;41.55
74680;BME280;63211;48.548;2.704;2022-12-15T10:10:14;99824.06;;;18.34;43.39
74680;BME280;63211;48.548;2.704;2022-12-15T10:12:45;99827.50;;;18.29;44.53
74680;BME280;63211;48.548;2.704;2022-12-15T10:15:20;99830.59;;;18.33;45.70
74680;BME280;63211;48.548;2.704;2022-12-15T10:17:51;99823.31;;;18.38;44.11
74680;BME280;63211;48.548;2.704;2022-12-15T10:20:23;99812.75;;;18.42;43.36
74680;BME280;63211;48.548;2.704;2022-12-15T10:22:52;99791.94;;;18.36;43.24
74680;BME280;63211;48.548;2.704;2022-12-15T10:25:23;99805.50;;;18.47;43.35
74680;BME280;63211;48.548;2.704;2022-12-15T10:30:44;99785.09;;;18.33;43.04
74680;BME280;63211;48.548;2.704;2022-12-15T10:33:17;99800.53;;;18.44;43.09
74680;BME280;63211;48.548;2.704;2022-12-15T10:35:45;99772.72;;;18.26;43.02
74680;BME280;63211;48.548;2.704;2022-12-15T10:38:23;99799.38;;;18.40;42.99
74680;BME280;63211;48.548;2.704;2022-12-15T10:40:52;99789.56;;;18.39;42.98
74680;BME280;63211;48.548;2.704;2022-12-15T10:43:25;99782.69;;;18.37;43.27
74680;BME280;63211;48.548;2.704;2022-12-15T10:46:01;99782.13;;;18.35;43.44
74680;BME280;63211;48.548;2.704;2022-12-15T10:48:29;99783.44;;;18.32;42.95
74680;BME280;63211;48.548;2.704;2022-12-15T10:51:17;99759.09;;;18.26;43.22
74680;BME280;63211;48.548;2.704;2022-12-15T10:53:45;99713.34;;;17.94;43.03
74680;BME280;63211;48.548;2.704;2022-12-15T10:56:18;99770.00;;;18.26;43.07
74680;BME280;63211;48.548;2.704;2022-12-15T10:58:47;99759.41;;;18.29;42.76
74680;BME280;63211;48.548;2.704;2022-12-15T11:01:18;99764.22;;;18.22;45.03
74680;BME280;63211;48.548;2.704;2022-12-15T11:03:44;99751.06;;;18.02;46.01
74680;BME280;63211;48.548;2.704;2022-12-15T11:06:17;99757.63;;;17.90;46.81
74680;BME280;63211;48.548;2.704;2022-12-15T11:08:46;99745.75;;;17.79;46.73
74680;BME280;63211;48.548;2.704;2022-12-15T11:11:25;99744.47;;;17.70;46.85
74680;BME280;63211;48.548;2.704;2022-12-15T11:14:12;99752.44;;;17.60;47.02
74680;BME280;63211;48.548;2.704;2022-12-15T11:16:45;99743.69;;;17.58;46.81
74680;BME280;63211;48.548;2.704;2022-12-15T11:19:16;99716.50;;;17.46;46.75
74680;BME280;63211;48.548;2.704;2022-12-15T11:21:50;99718.16;;;17.47;46.86
74680;BME280;63211;48.548;2.704;2022-12-15T11:24:23;99713.88;;;17.51;46.32
74680;BME280;63211;48.548;2.704;2022-12-15T11:26:57;99707.38;;;17.52;45.83
74680;BME280;63211;48.548;2.704;2022-12-15T11:29:34;99710.69;;;17.54;45.80
74680;BME280;63211;48.548;2.704;2022-12-15T11:32:05;99704.66;;;17.52;45.32
74680;BME280;63211;48.548;2.704;2022-12-15T11:34:34;99697.81;;;17.49;45.36
74680;BME280;63211;48.548;2.704;2022-12-15T11:37:34;99690.13;;;17.46;45.10
74680;BME280;63211;48.548;2.704;2022-12-15T11:40:13;99686.56;;;17.46;45.07
74680;BME280;63211;48.548;2.704;2022-12-15T11:42:52;99673.78;;;17.46;44.66
74680;BME280;63211;48.548;2.704;2022-12-15T11:45:24;99675.69;;;17.46;44.67
74680;BME280;63211;48.548;2.704;2022-12-15T11:47:58;99673.56;;;17.48;45.00
74680;BME280;63211;48.548;2.704;2022-12-15T11:50:30;99670.25;;;17.46;44.83
74680;BME280;63211;48.548;2.704;2022-12-15T11:53:12;99682.22;;;17.45;44.55
74680;BME280;63211;48.548;2.704;2022-12-15T11:55:46;99668.34;;;17.46;44.19
74680;BME280;63211;48.548;2.704;2022-12-15T12:01:25;99649.25;;;17.41;43.79
74680;BME280;63211;48.548;2.704;2022-12-15T12:04:05;99658.28;;;17.47;44.08
74680;BME280;63211;48.548;2.704;2022-12-15T12:06:46;99655.56;;;17.47;44.34
74680;BME280;63211;48.548;2.704;2022-12-15T12:09:27;99644.22;;;17.50;43.36
74680;BME280;63211;48.548;2.704;2022-12-15T12:12:02;99658.63;;;17.50;43.63
74680;BME280;63211;48.548;2.704;2022-12-15T12:14:42;99667.88;;;17.49;43.19
74680;BME280;63211;48.548;2.704;2022-12-15T12:17:17;99645.94;;;17.39;43.11
74680;BME280;63211;48.548;2.704;2022-12-15T12:19:50;99660.47;;;17.45;43.01
74680;BME280;63211;48.548;2.704;2022-12-15T12:22:22;99665.09;;;17.44;43.11
74680;BME280;63211;48.548;2.704;2022-12-15T12:24:54;99659.94;;;17.48;42.81
74680;BME280;63211;48.548;2.704;2022-12-15T12:27:26;99651.28;;;17.51;42.77
74680;BME280;63211;48.548;2.704;2022-12-15T12:29:58;99649.66;;;17.50;42.95
74680;BME280;63211;48.548;2.704;2022-12-15T12:32:32;99640.66;;;17.49;42.81
74680;BME280;63211;48.548;2.704;2022-12-15T12:35:07;99634.63;;;17.47;42.67
74680;BME280;63211;48.548;2.704;2022-12-15T12:37:41;99628.94;;;17.49;42.75
74680;BME280;63211;48.548;2.704;2022-12-15T12:40:16;99624.34;;;17.49;42.71
74680;BME280;63211;48.548;2.704;2022-12-15T12:42:50;99629.19;;;17.47;43.21
74680;BME280;63211;48.548;2.704;2022-12-15T12:45:19;99632.16;;;17.46;42.87
74680;BME280;63211;48.548;2.704;2022-12-15T12:47:51;99623.50;;;17.49;42.80
74680;BME280;63211;48.548;2.704;2022-12-15T12:50:23;99619.66;;;17.45;42.90
74680;BME280;63211;48.548;2.704;2022-12-15T12:52:50;99615.19;;;17.39;43.36
74680;BME280;63211;48.548;2.704;2022-12-15T12:55:24;99620.78;;;17.49;43.17
74680;BME280;63211;48.548;2.704;2022-12-15T12:57:52;99617.00;;;17.50;43.04
74680;BME280;63211;48.548;2.704;2022-12-15T13:00:22;99611.22;;;17.46;42.06
74680;BME280;63211;48.548;2.704;2022-12-15T13:02:56;99609.59;;;17.45;42.14
74680;BME280;63211;48.548;2.704;2022-12-15T13:05:36;99606.59;;;17.47;42.08
74680;BME280;63211;48.548;2.704;2022-12-15T13:08:28;99593.00;;;17.47;41.74
74680;BME280;63211;48.548;2.704;2022-12-15T13:10:55;99584.28;;;17.45;42.20
74680;BME280;63211;48.548;2.704;2022-12-15T13:13:37;99577.72;;;17.46;41.35
74680;BME280;63211;48.548;2.704;2022-12-15T13:16:12;99581.28;;;17.46;41.29
74680;BME280;63211;48.548;2.704;2022-12-15T13:19:01;99584.00;;;17.46;40.99
74680;BME280;63211;48.548;2.704;2022-12-15T13:21:51;99580.22;;;17.47;41.01
74680;BME280;63211;48.548;2.704;2022-12-15T13:24:26;99571.50;;;17.45;40.58
74680;BME280;63211;48.548;2.704;2022-12-15T13:27:03;99504.75;;;17.09;40.63
74680;BME280;63211;48.548;2.704;2022-12-15T13:29:32;99564.47;;;17.49;40.45
74680;BME280;63211;48.548;2.704;2022-12-15T13:31:59;99564.47;;;17.49;40.88
74680;BME280;63211;48.548;2.704;2022-12-15T13:34:27;99566.94;;;17.51;40.38
74680;BME280;63211;48.548;2.704;2022-12-15T13:36:58;99561.50;;;17.51;40.45
74680;BME280;63211;48.548;2.704;2022-12-15T13:42:34;99575.34;;;17.49;40.12
74680;BME280;63211;48.548;2.704;2022-12-15T13:48:15;99566.06;;;17.45;40.09
74680;BME280;63211;48.548;2.704;2022-12-15T13:50:47;99520.69;;;17.17;40.08